Kezdőlap
METAR-TAF:

METAR-TAF

Repülőterek :

Chariton Municipal Airport

Chariton, Iowa, Amerikai Egyesült Államok

földrajzi szélesség: 41-02N, földrajzi hosszúság: 093-22W, magasság: 320 m

Jelenlegi meteorológiai megfigyelések

A jelentés 18 perccel ezelõtt készült, 12:35 UTC
Délnyugati szél 8 kt
Hőmérséklet 24°C
Páratartalom 89%
Légköri nyomás 1017 hPa
Látótávolság: 11.3 km
Derült ég

METAR: KCNC 281235Z AUTO 22008KT 7SM CLR 24/22 A3004 RMK AO2

Idő: 07:53 (12:53 UTC)


TAF: hiányzik

Meteorológiai megfigyelések és előrejelzések több, mint 4000 repülőtéren (METAR és TAF jelentéseket).

A térképen piros és sárga pontok jelzik az elérhető meteorológiai állomásokat.

Mozgassa az egeret a pont fölött, hogy megjelenjen az állomás neve.

Azután kattintson az időjárási megfigyelések és előrejelzések megtekintéséhez.

A térkép megváltoztatása: kattintson a fekete keresztel jelölt zöld gombra ráközelítéshez, a vonallal jelölt zöld gombra távolításhoz, vagy a zöld nyilakra a szomszédos térképek eléréséhez.


METAR-TAF: